createdAt,value
2017-12-22T00:00:14.022Z,23.40
2017-12-22T00:01:14.026Z,18.30
2017-12-22T00:02:14.025Z,17.70
2017-12-22T00:03:14.023Z,18.70
2017-12-22T00:04:14.023Z,20.20
2017-12-22T00:05:14.018Z,17.60
2017-12-22T00:06:14.013Z,18.50
2017-12-22T00:07:14.013Z,20.40
2017-12-22T00:08:14.016Z,21.00
2017-12-22T00:09:14.006Z,16.90
2017-12-22T00:10:14.007Z,26.90
2017-12-22T00:11:14.009Z,19.00
2017-12-22T00:12:14.001Z,19.20
2017-12-22T00:13:14.008Z,18.90
2017-12-22T00:14:14.008Z,19.70
2017-12-22T00:15:14.001Z,18.70
2017-12-22T00:16:14.002Z,20.40
2017-12-22T00:17:14.000Z,19.20
2017-12-22T00:18:14.004Z,18.40
2017-12-22T00:19:13.994Z,22.10
2017-12-22T00:20:14.010Z,18.80
2017-12-22T00:21:13.997Z,21.40
2017-12-22T00:22:13.998Z,19.40
2017-12-22T00:23:13.984Z,18.10
2017-12-22T00:24:14.897Z,17.00
2017-12-22T00:25:13.982Z,15.80
2017-12-22T00:26:13.981Z,18.60
2017-12-22T00:27:13.979Z,17.60
2017-12-22T00:28:13.979Z,16.90
2017-12-22T00:29:13.983Z,18.80
2017-12-22T00:30:13.974Z,19.10
2017-12-22T00:31:13.978Z,20.70
2017-12-22T00:32:13.971Z,17.70
2017-12-22T00:33:13.968Z,20.20
2017-12-22T00:34:13.968Z,19.20
2017-12-22T00:35:13.992Z,18.60
2017-12-22T00:36:13.971Z,17.80
2017-12-22T00:37:13.975Z,19.20
2017-12-22T00:38:13.965Z,15.80
2017-12-22T00:39:13.963Z,18.40
2017-12-22T00:40:13.968Z,15.80
2017-12-22T00:41:13.962Z,17.50
2017-12-22T00:42:13.963Z,17.20
2017-12-22T00:43:13.961Z,20.40
2017-12-22T00:44:14.011Z,19.20
2017-12-22T00:45:13.963Z,17.20
2017-12-22T00:46:13.984Z,16.40
2017-12-22T00:47:13.951Z,16.10
2017-12-22T00:48:13.947Z,22.20
2017-12-22T00:49:13.952Z,17.60
2017-12-22T00:50:13.946Z,20.50
2017-12-22T00:51:13.949Z,19.10
2017-12-22T00:52:13.941Z,23.00
2017-12-22T00:53:13.945Z,21.40
2017-12-22T00:54:13.939Z,18.20
2017-12-22T00:55:13.938Z,20.30
2017-12-22T00:56:13.930Z,19.30
2017-12-22T00:57:13.939Z,19.20
2017-12-22T00:58:13.930Z,22.10
2017-12-22T00:59:13.990Z,19.50
2017-12-22T01:00:13.938Z,18.70
2017-12-22T01:01:13.930Z,24.70
2017-12-22T01:02:13.996Z,18.20
2017-12-22T01:03:13.925Z,20.40
2017-12-22T01:04:14.052Z,20.90
2017-12-22T01:05:13.979Z,19.10
2017-12-22T01:06:13.937Z,19.40
2017-12-22T01:07:13.925Z,18.80
2017-12-22T01:08:13.984Z,18.40
2017-12-22T01:09:13.947Z,25.20
2017-12-22T01:10:13.922Z,21.00
2017-12-22T01:11:13.912Z,18.00
2017-12-22T01:12:13.941Z,19.70
2017-12-22T01:13:13.908Z,15.70
2017-12-22T01:14:13.912Z,20.10
2017-12-22T01:15:13.911Z,18.80
2017-12-22T01:16:13.908Z,15.40
2017-12-22T01:17:13.913Z,21.70
2017-12-22T01:18:13.902Z,17.00
2017-12-22T01:19:13.903Z,19.20
2017-12-22T01:20:13.898Z,19.00
2017-12-22T01:21:13.896Z,19.20
2017-12-22T01:22:13.897Z,14.70
2017-12-22T01:23:13.895Z,15.60
2017-12-22T01:24:13.894Z,20.90
2017-12-22T01:25:13.895Z,19.00
2017-12-22T01:26:13.892Z,20.00
2017-12-22T01:27:13.887Z,21.00
2017-12-22T01:28:13.892Z,18.60
2017-12-22T01:29:13.890Z,18.80
2017-12-22T01:30:13.884Z,14.60
2017-12-22T01:31:13.884Z,18.20
2017-12-22T01:32:13.883Z,17.00
2017-12-22T01:33:13.879Z,22.30
2017-12-22T01:34:13.876Z,16.50
2017-12-22T01:35:13.877Z,21.90
2017-12-22T01:36:13.881Z,22.20
2017-12-22T01:37:13.876Z,18.80
2017-12-22T01:38:13.877Z,16.70
2017-12-22T01:39:13.872Z,27.10
2017-12-22T01:40:13.869Z,16.40
2017-12-22T01:41:13.874Z,19.20
2017-12-22T01:42:13.881Z,19.10
2017-12-22T01:43:13.866Z,14.90
2017-12-22T01:44:13.867Z,16.50
2017-12-22T01:45:13.868Z,19.40
2017-12-22T01:46:13.874Z,15.30
2017-12-22T01:47:13.860Z,16.20
2017-12-22T01:48:13.860Z,17.90
2017-12-22T01:49:13.863Z,16.60
2017-12-22T01:50:13.862Z,16.90
2017-12-22T01:51:13.857Z,18.90
2017-12-22T01:52:13.856Z,20.30
2017-12-22T01:53:13.853Z,14.70
2017-12-22T01:54:13.850Z,20.60
2017-12-22T01:55:13.852Z,19.90
2017-12-22T01:56:13.852Z,16.30
2017-12-22T01:57:13.858Z,20.30
2017-12-22T01:58:13.846Z,20.20
2017-12-22T01:59:13.845Z,19.40
2017-12-22T02:00:13.842Z,17.80
2017-12-22T02:01:13.841Z,16.20
2017-12-22T02:02:13.842Z,16.90
2017-12-22T02:03:14.110Z,18.90
2017-12-22T02:04:13.860Z,15.90
2017-12-22T02:05:15.229Z,16.90
2017-12-22T02:06:13.836Z,16.50
2017-12-22T02:07:13.838Z,18.80
2017-12-22T02:08:13.832Z,16.60
2017-12-22T02:09:13.837Z,18.10
2017-12-22T02:10:13.833Z,17.40
2017-12-22T02:11:13.830Z,17.90
2017-12-22T02:12:13.830Z,18.90
2017-12-22T02:13:13.830Z,14.20
2017-12-22T02:14:13.828Z,20.80
2017-12-22T02:15:13.820Z,22.90
2017-12-22T02:16:13.823Z,15.70
2017-12-22T02:17:13.822Z,18.30
2017-12-22T02:18:13.821Z,14.30
2017-12-22T02:19:13.819Z,21.10
2017-12-22T02:20:13.823Z,16.90
2017-12-22T02:21:13.819Z,18.00
2017-12-22T02:22:13.822Z,17.10
2017-12-22T02:23:13.817Z,17.20
2017-12-22T02:24:13.813Z,18.10
2017-12-22T02:25:13.814Z,18.40
2017-12-22T02:26:13.811Z,13.80
2017-12-22T02:27:13.812Z,17.10
2017-12-22T02:28:13.807Z,13.60
2017-12-22T02:29:13.824Z,14.70
2017-12-22T02:30:13.852Z,20.30
2017-12-22T02:31:13.875Z,16.00
2017-12-22T02:32:13.858Z,20.70
2017-12-22T02:33:13.885Z,17.30
2017-12-22T02:34:13.840Z,17.10
2017-12-22T02:35:13.835Z,17.40
2017-12-22T02:36:13.904Z,15.40
2017-12-22T02:37:13.830Z,17.00
2017-12-22T02:38:13.872Z,14.00
2017-12-22T02:39:13.848Z,15.10
2017-12-22T02:40:13.799Z,13.10
2017-12-22T02:41:13.799Z,18.70
2017-12-22T02:42:13.794Z,13.50
2017-12-22T02:43:13.792Z,19.60
2017-12-22T02:44:13.793Z,16.80
2017-12-22T02:45:13.793Z,17.00
2017-12-22T02:46:13.799Z,14.80
2017-12-22T02:47:13.792Z,19.60
2017-12-22T02:48:13.785Z,15.30
2017-12-22T02:49:13.782Z,13.70
2017-12-22T02:50:13.783Z,20.10
2017-12-22T02:51:13.782Z,19.30
2017-12-22T02:52:13.784Z,16.90
2017-12-22T02:53:13.780Z,20.20
2017-12-22T02:54:13.780Z,15.90
2017-12-22T02:55:13.800Z,15.30
2017-12-22T02:56:13.774Z,17.40
2017-12-22T02:57:13.776Z,15.60
2017-12-22T02:58:13.777Z,17.40
2017-12-22T02:59:13.772Z,14.20
2017-12-22T03:00:13.774Z,12.70
2017-12-22T03:01:13.774Z,14.00
2017-12-22T03:02:13.769Z,18.70
2017-12-22T03:03:13.767Z,17.20
2017-12-22T03:04:13.773Z,12.30
2017-12-22T03:05:13.762Z,16.10
2017-12-22T03:06:13.764Z,17.60
2017-12-22T03:07:13.761Z,18.00
2017-12-22T03:08:13.761Z,16.60
2017-12-22T03:09:13.766Z,18.30
2017-12-22T03:10:13.767Z,17.70
2017-12-22T03:11:13.760Z,13.20
2017-12-22T03:12:13.764Z,13.10
2017-12-22T03:13:13.758Z,14.50
2017-12-22T03:14:13.754Z,13.70
2017-12-22T03:15:13.753Z,13.90
2017-12-22T03:16:13.752Z,16.40
2017-12-22T03:17:13.757Z,13.10
2017-12-22T03:18:13.752Z,17.20
2017-12-22T03:19:13.757Z,17.50
2017-12-22T03:20:13.749Z,11.60
2017-12-22T03:21:13.746Z,12.90
2017-12-22T03:22:13.741Z,13.30
2017-12-22T03:23:13.745Z,14.90
2017-12-22T03:24:13.746Z,14.70
2017-12-22T03:25:13.738Z,13.60
2017-12-22T03:26:13.739Z,12.70
2017-12-22T03:27:13.747Z,14.20
2017-12-22T03:28:13.742Z,15.80
2017-12-22T03:29:13.743Z,11.30
2017-12-22T03:30:13.733Z,15.50
2017-12-22T03:31:13.736Z,16.10
2017-12-22T03:32:13.730Z,12.90
2017-12-22T03:33:13.732Z,13.70
2017-12-22T03:34:13.727Z,14.50
2017-12-22T03:35:13.729Z,13.80
2017-12-22T03:36:13.730Z,14.30
2017-12-22T03:37:13.721Z,13.30
2017-12-22T03:38:13.723Z,13.70
2017-12-22T03:39:13.720Z,14.30
2017-12-22T03:40:13.722Z,12.00
2017-12-22T03:41:13.721Z,12.20
2017-12-22T03:42:13.716Z,13.30
2017-12-22T03:43:13.714Z,12.50
2017-12-22T03:44:13.713Z,12.40
2017-12-22T03:45:13.713Z,10.60
2017-12-22T03:46:13.710Z,14.20
2017-12-22T03:47:13.710Z,12.30
2017-12-22T03:48:13.708Z,15.50
2017-12-22T03:49:13.766Z,10.90
2017-12-22T03:50:13.717Z,9.80
2017-12-22T03:51:13.707Z,15.90
2017-12-22T03:52:13.699Z,14.40
2017-12-22T03:53:13.701Z,13.90
2017-12-22T03:54:13.702Z,9.80
2017-12-22T03:55:13.717Z,12.00
2017-12-22T03:56:13.699Z,11.60
2017-12-22T03:57:13.695Z,11.10
2017-12-22T03:58:13.690Z,13.10
2017-12-22T03:59:13.690Z,10.10
2017-12-22T04:00:13.689Z,17.80
2017-12-22T04:01:13.689Z,12.00
2017-12-22T04:02:13.689Z,12.40
2017-12-22T04:03:13.690Z,9.50
2017-12-22T04:04:13.685Z,12.60
2017-12-22T04:05:13.680Z,11.00
2017-12-22T04:06:13.688Z,13.90
2017-12-22T04:07:13.678Z,8.10
2017-12-22T04:08:13.680Z,11.10
2017-12-22T04:09:13.676Z,13.60
2017-12-22T04:10:13.677Z,11.80
2017-12-22T04:11:13.679Z,10.10
2017-12-22T04:12:13.677Z,10.80
2017-12-22T04:13:13.673Z,11.60
2017-12-22T04:14:13.670Z,10.40
2017-12-22T04:15:13.669Z,11.10
2017-12-22T04:16:13.668Z,9.10
2017-12-22T04:17:13.670Z,11.20
2017-12-22T04:18:13.672Z,10.80
2017-12-22T04:19:13.680Z,9.90
2017-12-22T04:20:13.660Z,10.60
2017-12-22T04:21:13.665Z,10.10
2017-12-22T04:22:13.651Z,9.70
2017-12-22T04:23:13.655Z,8.50
2017-12-22T04:24:13.662Z,10.50
2017-12-22T04:25:13.650Z,16.10
2017-12-22T04:26:13.650Z,8.90
2017-12-22T04:27:13.650Z,8.20
2017-12-22T04:28:13.646Z,11.80
2017-12-22T04:29:13.646Z,8.70
2017-12-22T04:30:13.647Z,8.60
2017-12-22T04:31:13.642Z,13.00
2017-12-22T04:32:13.645Z,9.30
2017-12-22T04:33:13.638Z,9.20
2017-12-22T04:34:13.636Z,10.10
2017-12-22T04:35:13.632Z,8.60
2017-12-22T04:36:13.637Z,11.40
2017-12-22T04:37:13.629Z,13.30
2017-12-22T04:38:13.630Z,8.90
2017-12-22T04:39:13.630Z,9.80
2017-12-22T04:40:13.630Z,10.80
2017-12-22T04:41:13.634Z,10.90
2017-12-22T04:42:13.627Z,8.00
2017-12-22T04:43:13.625Z,11.40
2017-12-22T04:44:13.622Z,12.00
2017-12-22T04:45:13.616Z,10.60
2017-12-22T04:46:13.621Z,9.50
2017-12-22T04:47:13.613Z,10.00
2017-12-22T04:48:13.612Z,6.80
2017-12-22T04:49:13.611Z,9.50
2017-12-22T04:50:13.611Z,10.30
2017-12-22T04:51:13.609Z,8.90
2017-12-22T04:52:13.603Z,10.50
2017-12-22T04:53:13.607Z,8.10
2017-12-22T04:54:13.602Z,8.20
2017-12-22T04:55:13.599Z,9.90
2017-12-22T04:56:13.601Z,9.50
2017-12-22T04:57:13.599Z,8.90
2017-12-22T04:58:13.599Z,8.10
2017-12-22T04:59:13.593Z,8.60
2017-12-22T05:00:13.587Z,10.80
2017-12-22T05:01:13.595Z,9.70
2017-12-22T05:02:13.591Z,13.90
2017-12-22T05:03:13.597Z,8.40
2017-12-22T05:04:13.582Z,11.00
2017-12-22T05:05:13.580Z,9.50
2017-12-22T05:06:13.581Z,9.70
2017-12-22T05:07:13.580Z,11.70
2017-12-22T05:08:13.589Z,10.30
2017-12-22T05:09:13.574Z,7.60
2017-12-22T05:10:13.580Z,13.10
2017-12-22T05:11:13.570Z,10.90
2017-12-22T05:12:13.568Z,9.70
2017-12-22T05:13:13.567Z,13.10
2017-12-22T05:14:13.569Z,9.90
2017-12-22T05:15:13.577Z,8.90
2017-12-22T05:16:13.570Z,10.80
2017-12-22T05:17:13.561Z,8.70
2017-12-22T05:18:13.565Z,10.80
2017-12-22T05:19:13.558Z,10.80
2017-12-22T05:20:13.558Z,7.90
2017-12-22T05:21:13.563Z,11.00
2017-12-22T05:22:13.557Z,10.60
2017-12-22T05:23:13.550Z,9.60
2017-12-22T05:24:13.547Z,10.10
2017-12-22T05:25:13.547Z,12.40
2017-12-22T05:26:13.551Z,12.40
2017-12-22T05:27:13.543Z,12.60
2017-12-22T05:28:13.542Z,10.60
2017-12-22T05:29:13.541Z,13.00
2017-12-22T05:30:13.546Z,10.40
2017-12-22T05:31:13.538Z,13.60
2017-12-22T05:32:13.541Z,11.60
2017-12-22T05:33:13.535Z,10.80
2017-12-22T05:34:13.528Z,14.50
2017-12-22T05:35:13.535Z,14.70
2017-12-22T05:36:13.591Z,17.40
2017-12-22T05:37:13.524Z,12.90
2017-12-22T05:38:13.526Z,10.40
2017-12-22T05:39:13.521Z,13.00
2017-12-22T05:40:13.518Z,10.60
2017-12-22T05:41:13.549Z,13.90
2017-12-22T05:42:13.521Z,15.70
2017-12-22T05:43:13.515Z,14.90
2017-12-22T05:44:13.527Z,12.40
2017-12-22T05:45:13.510Z,12.90
2017-12-22T05:46:13.508Z,14.30
2017-12-22T05:47:13.514Z,15.20
2017-12-22T05:48:13.502Z,11.40
2017-12-22T05:49:13.507Z,15.00
2017-12-22T05:50:13.506Z,16.10
2017-12-22T05:51:13.499Z,18.50
2017-12-22T05:52:13.500Z,19.50
2017-12-22T05:53:13.500Z,12.30
2017-12-22T05:54:13.498Z,18.30
2017-12-22T05:55:13.500Z,16.60
2017-12-22T05:56:13.497Z,16.90
2017-12-22T05:57:13.486Z,16.50
2017-12-22T05:58:13.488Z,18.40
2017-12-22T05:59:13.663Z,14.60
2017-12-22T06:00:13.486Z,14.60
2017-12-22T06:01:13.488Z,14.40
2017-12-22T06:02:13.481Z,14.60
2017-12-22T06:03:13.481Z,16.50
2017-12-22T06:04:13.480Z,10.10
2017-12-22T06:05:13.477Z,10.30
2017-12-22T06:06:13.477Z,12.50
2017-12-22T06:07:13.480Z,12.40
2017-12-22T06:08:13.471Z,12.70
2017-12-22T06:09:13.468Z,12.90
2017-12-22T06:10:13.465Z,12.50
2017-12-22T06:11:13.466Z,18.00
2017-12-22T06:12:13.466Z,11.00
2017-12-22T06:13:13.473Z,14.20
2017-12-22T06:14:13.461Z,13.30
2017-12-22T06:15:13.460Z,15.00
2017-12-22T06:16:13.461Z,12.80
2017-12-22T06:17:13.514Z,11.60
2017-12-22T06:18:13.457Z,14.40
2017-12-22T06:19:13.458Z,16.50
2017-12-22T06:20:13.458Z,18.60
2017-12-22T06:21:13.456Z,14.70
2017-12-22T06:22:13.451Z,13.00
2017-12-22T06:23:13.451Z,13.30
2017-12-22T06:24:13.447Z,18.50
2017-12-22T06:25:13.451Z,18.30
2017-12-22T06:26:13.443Z,16.20
2017-12-22T06:27:13.440Z,17.90
2017-12-22T06:28:13.453Z,16.70
2017-12-22T06:29:13.439Z,15.90
2017-12-22T06:30:13.433Z,17.20
2017-12-22T06:31:13.435Z,14.30
2017-12-22T06:32:13.435Z,18.50
2017-12-22T06:33:13.431Z,16.30
2017-12-22T06:34:13.429Z,17.30
2017-12-22T06:35:13.428Z,16.60
2017-12-22T06:36:13.432Z,14.70
2017-12-22T06:37:13.428Z,17.40
2017-12-22T06:38:13.424Z,16.20
2017-12-22T06:39:13.419Z,14.10
2017-12-22T06:40:13.419Z,17.50
2017-12-22T06:41:13.428Z,15.80
2017-12-22T06:42:13.415Z,19.50
2017-12-22T06:43:13.412Z,17.00
2017-12-22T06:44:13.415Z,18.00
2017-12-22T06:45:13.411Z,18.60
2017-12-22T06:46:13.410Z,16.10
2017-12-22T06:47:13.404Z,17.70
2017-12-22T06:48:13.411Z,15.30
2017-12-22T06:49:13.409Z,17.10
2017-12-22T06:50:13.399Z,16.50
2017-12-22T06:51:13.411Z,19.90
2017-12-22T06:52:13.395Z,15.80
2017-12-22T06:53:13.403Z,18.60
2017-12-22T06:54:13.391Z,20.20
2017-12-22T06:55:13.392Z,19.20
2017-12-22T06:56:13.389Z,16.10
2017-12-22T06:57:13.387Z,20.00
2017-12-22T06:58:13.417Z,20.70
2017-12-22T06:59:13.389Z,20.40
2017-12-22T07:00:13.384Z,20.50
2017-12-22T07:01:13.379Z,19.30
2017-12-22T07:02:13.380Z,26.10
2017-12-22T07:03:13.381Z,22.20
2017-12-22T07:04:13.379Z,21.30
2017-12-22T07:05:13.370Z,17.30
2017-12-22T07:06:13.371Z,22.10
2017-12-22T07:07:13.371Z,20.50
2017-12-22T07:08:13.368Z,15.70
2017-12-22T07:09:13.363Z,21.60
2017-12-22T07:10:13.365Z,20.20
2017-12-22T07:11:13.360Z,20.70
2017-12-22T07:12:13.358Z,19.70
2017-12-22T07:13:13.359Z,23.20
2017-12-22T07:14:13.808Z,21.50
2017-12-22T07:15:13.356Z,25.50
2017-12-22T07:16:13.350Z,24.40
2017-12-22T07:17:13.351Z,23.50
2017-12-22T07:18:13.349Z,19.40
2017-12-22T07:19:13.350Z,20.00
2017-12-22T07:20:13.347Z,23.30
2017-12-22T07:21:13.348Z,19.60
2017-12-22T07:22:13.338Z,22.70
2017-12-22T07:23:13.341Z,16.80
2017-12-22T07:24:13.340Z,20.30
2017-12-22T07:25:13.341Z,20.30
2017-12-22T07:26:13.347Z,17.50
2017-12-22T07:27:13.342Z,23.80
2017-12-22T07:28:13.333Z,16.40
2017-12-22T07:29:13.329Z,21.60
2017-12-22T07:30:13.328Z,17.50
2017-12-22T07:31:13.329Z,15.30
2017-12-22T07:32:13.323Z,19.00
2017-12-22T07:33:13.320Z,21.80
2017-12-22T07:34:13.318Z,22.70
2017-12-22T07:35:13.320Z,19.00
2017-12-22T07:36:13.319Z,18.00
2017-12-22T07:37:13.318Z,27.10
2017-12-22T07:38:13.315Z,19.40
2017-12-22T07:39:13.317Z,15.00
2017-12-22T07:40:13.310Z,27.20
2017-12-22T07:41:13.307Z,17.50
2017-12-22T07:42:13.309Z,16.70
2017-12-22T07:43:13.304Z,19.90
2017-12-22T07:44:13.306Z,15.80
2017-12-22T07:45:13.300Z,18.70
2017-12-22T07:47:45.421Z,27.20
2017-12-22T07:48:45.384Z,20.50
2017-12-22T07:49:45.374Z,20.10
2017-12-22T07:50:45.375Z,26.80
2017-12-22T07:51:45.373Z,24.80
2017-12-22T07:52:45.372Z,22.30
2017-12-22T07:53:45.364Z,21.20
2017-12-22T07:54:45.363Z,22.70
2017-12-22T07:55:45.368Z,21.00
2017-12-22T07:56:45.407Z,18.50
2017-12-22T07:57:45.369Z,28.80
2017-12-22T07:58:45.356Z,19.00
2017-12-22T07:59:45.367Z,21.30
2017-12-22T08:00:45.366Z,23.80
2017-12-22T08:01:45.354Z,27.00
2017-12-22T08:02:45.352Z,22.70
2017-12-22T08:03:45.353Z,26.00
2017-12-22T08:04:45.350Z,24.10
2017-12-22T08:05:45.347Z,28.50
2017-12-22T08:06:45.344Z,22.60
2017-12-22T08:07:45.344Z,22.70
2017-12-22T08:08:45.342Z,20.40
2017-12-22T08:09:45.343Z,22.70
2017-12-22T08:10:45.340Z,29.10
2017-12-22T08:11:45.344Z,24.60
2017-12-22T08:12:45.381Z,29.30
2017-12-22T08:13:45.338Z,25.40
2017-12-22T08:14:45.335Z,23.80
2017-12-22T08:15:45.333Z,25.60
2017-12-22T08:16:45.335Z,23.70
2017-12-22T08:17:45.330Z,28.40
2017-12-22T08:18:45.332Z,29.60
2017-12-22T08:19:45.326Z,37.00
2017-12-22T08:20:45.323Z,38.00
2017-12-22T08:21:45.325Z,26.50
2017-12-22T08:22:45.321Z,27.70
2017-12-22T08:23:45.322Z,29.80
2017-12-22T08:24:45.327Z,25.10
2017-12-22T08:25:45.408Z,24.50
2017-12-22T08:26:45.323Z,23.30
2017-12-22T08:27:45.313Z,25.90
2017-12-22T08:28:45.312Z,26.10
2017-12-22T08:29:45.324Z,26.00
2017-12-22T08:30:45.305Z,24.20
2017-12-22T08:31:45.304Z,22.70
2017-12-22T08:32:45.303Z,24.80
2017-12-22T08:33:45.309Z,21.40
2017-12-22T08:34:45.305Z,22.80
2017-12-22T08:35:45.306Z,20.20
2017-12-22T08:36:45.296Z,28.60
2017-12-22T08:37:45.295Z,23.50
2017-12-22T08:38:45.292Z,26.20
2017-12-22T08:39:45.294Z,23.40
2017-12-22T08:40:45.290Z,23.70
2017-12-22T08:41:45.294Z,22.50
2017-12-22T08:42:45.296Z,21.10
2017-12-22T08:43:45.289Z,26.70
2017-12-22T08:44:45.288Z,21.70
2017-12-22T08:45:45.634Z,17.70
2017-12-22T08:46:45.367Z,25.80
2017-12-22T08:47:45.285Z,23.40
2017-12-22T08:48:45.279Z,24.60
2017-12-22T08:49:45.279Z,19.20
2017-12-22T08:50:45.273Z,21.50
2017-12-22T08:51:45.273Z,17.70
2017-12-22T08:52:45.279Z,24.90
2017-12-22T08:53:45.297Z,17.90
2017-12-22T08:54:45.271Z,19.70
2017-12-22T08:55:45.264Z,20.80
2017-12-22T08:56:45.268Z,23.60
2017-12-22T08:57:45.264Z,19.50
2017-12-22T08:58:45.264Z,18.70
2017-12-22T08:59:45.266Z,22.20
2017-12-22T09:00:45.260Z,20.20
2017-12-22T09:01:45.257Z,20.20
2017-12-22T09:02:45.267Z,17.50
2017-12-22T09:03:45.254Z,19.00
2017-12-22T09:04:45.251Z,19.00
2017-12-22T09:05:45.253Z,16.90
2017-12-22T09:06:45.251Z,14.60
2017-12-22T09:07:45.253Z,19.30
2017-12-22T09:08:45.247Z,21.40
2017-12-22T09:09:45.246Z,13.60
2017-12-22T09:10:45.246Z,15.30
2017-12-22T09:11:45.245Z,17.90
2017-12-22T09:12:45.249Z,18.10
2017-12-22T09:13:45.237Z,16.20
2017-12-22T09:14:45.238Z,20.90
2017-12-22T09:15:45.236Z,18.40
2017-12-22T09:16:45.230Z,19.10
2017-12-22T09:17:45.237Z,23.80
2017-12-22T09:18:45.230Z,20.00
2017-12-22T09:19:45.230Z,19.50
2017-12-22T09:20:45.223Z,29.30
2017-12-22T09:21:45.223Z,18.90
2017-12-22T09:22:45.232Z,20.50
2017-12-22T09:23:45.225Z,15.80
2017-12-22T09:24:45.217Z,15.90
2017-12-22T09:25:45.218Z,19.90
2017-12-22T09:26:45.228Z,15.40
2017-12-22T09:27:45.223Z,19.90
2017-12-22T09:28:45.208Z,23.10
2017-12-22T09:29:45.210Z,20.20
2017-12-22T09:30:45.205Z,20.60
2017-12-22T09:31:45.205Z,15.50
2017-12-22T09:32:45.203Z,19.50
2017-12-22T09:33:45.202Z,15.40
2017-12-22T09:34:45.201Z,12.90
2017-12-22T09:35:45.199Z,18.10
2017-12-22T09:36:45.256Z,12.60
2017-12-22T09:37:45.197Z,14.10
2017-12-22T09:38:45.189Z,12.50
2017-12-22T09:39:45.187Z,14.40
2017-12-22T09:40:45.189Z,18.20
2017-12-22T09:41:45.179Z,20.70
2017-12-22T09:42:45.182Z,12.90
2017-12-22T09:43:45.177Z,18.50
2017-12-22T09:44:45.174Z,19.30
2017-12-22T09:45:45.180Z,16.00
2017-12-22T09:46:45.171Z,23.00
2017-12-22T09:47:45.175Z,15.20
2017-12-22T09:48:45.205Z,16.40
2017-12-22T09:49:45.170Z,17.00
2017-12-22T09:50:45.164Z,17.00
2017-12-22T09:51:45.163Z,14.40
2017-12-22T09:52:45.163Z,17.90
2017-12-22T09:53:45.160Z,15.00
2017-12-22T09:54:45.153Z,13.50
2017-12-22T09:55:45.153Z,15.50
2017-12-22T09:56:45.157Z,15.10
2017-12-22T09:57:45.152Z,11.50
2017-12-22T09:58:45.146Z,16.20
2017-12-22T09:59:45.149Z,13.90
2017-12-22T10:00:45.141Z,14.10
2017-12-22T10:01:45.138Z,15.50
2017-12-22T10:02:45.145Z,18.60
2017-12-22T10:03:45.138Z,13.20
2017-12-22T10:04:45.131Z,14.10
2017-12-22T10:05:45.131Z,15.10
2017-12-22T10:06:45.131Z,14.40
2017-12-22T10:07:45.131Z,12.50
2017-12-22T10:08:45.132Z,19.00
2017-12-22T10:09:45.125Z,11.80
2017-12-22T10:10:45.130Z,12.80
2017-12-22T10:11:45.122Z,13.50
2017-12-22T10:12:45.129Z,14.30
2017-12-22T10:13:45.116Z,11.20
2017-12-22T10:14:45.119Z,9.70
2017-12-22T10:15:45.112Z,11.00
2017-12-22T10:16:45.110Z,11.20
2017-12-22T10:17:45.112Z,12.40
2017-12-22T10:18:45.107Z,12.90
2017-12-22T10:19:45.109Z,10.30
2017-12-22T10:20:45.102Z,9.20
2017-12-22T10:21:45.102Z,9.60
2017-12-22T10:22:45.109Z,15.00
2017-12-22T10:23:45.105Z,9.40
2017-12-22T10:24:45.097Z,9.90
2017-12-22T10:25:45.095Z,15.00
2017-12-22T10:26:45.151Z,9.80
2017-12-22T10:27:45.091Z,14.00
2017-12-22T10:28:45.086Z,12.00
2017-12-22T10:29:45.086Z,11.80
2017-12-22T10:30:45.091Z,19.30
2017-12-22T10:31:45.081Z,17.60
2017-12-22T10:32:45.083Z,12.60
2017-12-22T10:33:45.081Z,15.10
2017-12-22T10:34:45.082Z,12.60
2017-12-22T10:35:45.073Z,9.40
2017-12-22T10:36:45.073Z,14.90
2017-12-22T10:37:45.069Z,11.60
2017-12-22T10:38:45.071Z,9.70
2017-12-22T10:39:45.065Z,11.60
2017-12-22T10:40:45.067Z,10.10
2017-12-22T10:41:45.126Z,10.90
2017-12-22T10:42:45.059Z,17.30
2017-12-22T10:43:45.062Z,10.20
2017-12-22T10:44:45.053Z,16.20
2017-12-22T10:45:45.058Z,13.40
2017-12-22T10:46:45.050Z,12.80
2017-12-22T10:47:45.052Z,16.50
2017-12-22T10:48:45.050Z,12.10
2017-12-22T10:49:45.059Z,10.90
2017-12-22T10:50:45.045Z,13.70
2017-12-22T10:51:45.045Z,9.30
2017-12-22T10:52:45.043Z,12.90
2017-12-22T10:53:45.042Z,15.20
2017-12-22T10:54:45.092Z,9.30
2017-12-22T10:55:45.040Z,12.10
2017-12-22T10:56:45.038Z,10.40
2017-12-22T10:57:45.033Z,11.90
2017-12-22T10:58:45.038Z,11.40
2017-12-22T10:59:45.032Z,9.50
2017-12-22T11:00:45.038Z,10.30
2017-12-22T11:01:45.033Z,19.40
2017-12-22T11:02:45.038Z,11.30
2017-12-22T11:03:45.026Z,15.80
2017-12-22T11:06:17.135Z,18.10
2017-12-22T11:07:17.087Z,10.60
2017-12-22T11:08:17.097Z,11.20
2017-12-22T11:09:17.092Z,13.90
2017-12-22T11:10:17.089Z,13.90
2017-12-22T11:11:17.086Z,9.60
2017-12-22T11:12:17.083Z,17.50
2017-12-22T11:13:17.089Z,11.30
2017-12-22T11:14:17.083Z,10.00
2017-12-22T11:15:17.080Z,10.20
2017-12-22T11:16:17.082Z,18.80
2017-12-22T11:17:17.078Z,15.00
2017-12-22T11:18:17.076Z,12.40
2017-12-22T11:19:17.074Z,12.20
2017-12-22T11:20:17.083Z,7.40
2017-12-22T11:21:17.080Z,8.00
2017-12-22T11:22:17.073Z,11.20
2017-12-22T11:23:17.069Z,13.50
2017-12-22T11:24:17.073Z,11.30
2017-12-22T11:25:17.067Z,7.10
2017-12-22T11:26:17.063Z,11.20
2017-12-22T11:27:17.072Z,9.60
2017-12-22T11:28:17.060Z,17.90
2017-12-22T11:29:17.468Z,13.30
2017-12-22T11:30:17.062Z,12.90
2017-12-22T11:31:17.054Z,13.30
2017-12-22T11:32:17.053Z,10.00
2017-12-22T11:33:17.054Z,10.60
2017-12-22T11:34:17.056Z,14.60
2017-12-22T11:35:17.053Z,13.30
2017-12-22T11:36:17.050Z,8.50
2017-12-22T11:37:17.046Z,14.00
2017-12-22T11:38:17.045Z,11.50
2017-12-22T11:39:17.039Z,14.40
2017-12-22T11:40:17.040Z,14.40
2017-12-22T11:41:17.040Z,10.80
2017-12-22T11:42:17.037Z,13.90
2017-12-22T11:43:17.040Z,21.20
2017-12-22T11:44:17.036Z,10.60
2017-12-22T11:45:17.047Z,15.90
2017-12-22T11:46:17.032Z,13.00
2017-12-22T11:47:17.037Z,14.10
2017-12-22T11:48:17.035Z,13.70
2017-12-22T11:49:17.030Z,11.20
2017-12-22T11:50:17.038Z,9.70
2017-12-22T11:51:17.021Z,14.90
2017-12-22T11:52:17.021Z,14.90
2017-12-22T11:53:17.021Z,14.20
2017-12-22T11:54:17.027Z,13.10
2017-12-22T11:55:17.016Z,13.70
2017-12-22T11:56:17.021Z,14.10
2017-12-22T11:57:17.023Z,12.70
2017-12-22T11:58:17.015Z,15.00
2017-12-22T11:59:17.014Z,12.60
2017-12-22T12:00:17.014Z,10.50
2017-12-22T12:01:17.014Z,12.20
2017-12-22T12:02:17.011Z,14.60
2017-12-22T12:03:17.007Z,15.30
2017-12-22T12:04:17.005Z,15.70
2017-12-22T12:05:17.005Z,11.30
2017-12-22T12:06:17.006Z,13.00
2017-12-22T12:07:17.003Z,11.80
2017-12-22T12:08:17.004Z,17.20
2017-12-22T12:09:17.005Z,18.60
2017-12-22T12:10:17.002Z,22.10
2017-12-22T12:11:17.000Z,22.10
2017-12-22T12:12:17.001Z,10.10
2017-12-22T12:13:17.003Z,13.00
2017-12-22T12:15:49.108Z,14.50
2017-12-22T12:16:49.068Z,11.60
2017-12-22T12:17:49.063Z,13.60
2017-12-22T12:18:49.066Z,14.20
2017-12-22T12:19:49.067Z,12.80
2017-12-22T12:20:49.061Z,20.30
2017-12-22T12:21:49.058Z,16.60
2017-12-22T12:22:49.057Z,14.50
2017-12-22T12:23:49.082Z,15.30
2017-12-22T12:24:49.057Z,17.50
2017-12-22T12:25:49.082Z,15.10
2017-12-22T12:26:49.050Z,18.70
2017-12-22T12:27:49.053Z,9.60
2017-12-22T12:28:49.052Z,12.40
2017-12-22T12:29:49.048Z,14.30
2017-12-22T12:30:49.057Z,11.50
2017-12-22T12:31:49.044Z,10.60
2017-12-22T12:32:49.043Z,13.20
2017-12-22T12:33:49.041Z,13.60
2017-12-22T12:34:49.043Z,15.20
2017-12-22T12:35:49.042Z,17.10
2017-12-22T12:36:49.043Z,15.70
2017-12-22T12:37:49.039Z,11.90
2017-12-22T12:38:49.038Z,16.00
2017-12-22T12:39:49.034Z,18.00
2017-12-22T12:40:49.029Z,12.20
2017-12-22T12:41:49.031Z,15.60
2017-12-22T12:42:49.032Z,11.10
2017-12-22T12:43:49.025Z,15.00
2017-12-22T12:44:49.030Z,14.00
2017-12-22T12:45:49.022Z,10.60
2017-12-22T12:46:49.021Z,12.90
2017-12-22T12:47:49.021Z,21.70
2017-12-22T12:48:49.025Z,17.80
2017-12-22T12:49:49.022Z,15.30
2017-12-22T12:50:49.017Z,16.20
2017-12-22T12:51:49.017Z,17.00
2017-12-22T12:52:49.021Z,16.60
2017-12-22T12:53:49.014Z,17.40
2017-12-22T12:54:49.051Z,12.40
2017-12-22T12:55:49.012Z,12.20
2017-12-22T12:56:49.012Z,18.20
2017-12-22T12:57:49.008Z,18.00
2017-12-22T12:58:49.011Z,12.20